sensor_id;sensor_type;location;lat;lon;timestamp;pressure;altitude;pressure_sealevel;temperature;humidity
60820;BME280;46641;48.904;9.126;2023-02-16T00:04:28;99635.91;;;8.27;61.57
60820;BME280;46641;48.904;9.126;2023-02-16T00:09:20;99650.00;;;8.25;62.16
60820;BME280;46641;48.904;9.126;2023-02-16T00:14:11;99659.72;;;8.23;61.84
60820;BME280;46641;48.904;9.126;2023-02-16T00:19:55;99653.63;;;8.22;61.65
60820;BME280;46641;48.904;9.126;2023-02-16T00:24:22;99653.88;;;8.19;62.27
60820;BME280;46641;48.904;9.126;2023-02-16T00:29:36;99640.28;;;8.14;62.46
60820;BME280;46641;48.904;9.126;2023-02-16T00:39:22;99643.84;;;8.13;62.23
60820;BME280;46641;48.904;9.126;2023-02-16T00:44:28;99644.88;;;8.10;62.14
60820;BME280;46641;48.904;9.126;2023-02-16T00:49:21;99651.13;;;8.08;62.56
60820;BME280;46641;48.904;9.126;2023-02-16T00:54:11;99646.97;;;8.05;61.90
60820;BME280;46641;48.904;9.126;2023-02-16T00:59:03;99648.72;;;8.05;62.31
60820;BME280;46641;48.904;9.126;2023-02-16T01:03:58;99653.25;;;8.03;61.83
60820;BME280;46641;48.904;9.126;2023-02-16T01:08:52;99660.31;;;8.01;61.99
60820;BME280;46641;48.904;9.126;2023-02-16T01:14:04;99651.75;;;7.99;62.35
60820;BME280;46641;48.904;9.126;2023-02-16T01:18:54;99634.66;;;7.94;62.75
60820;BME280;46641;48.904;9.126;2023-02-16T01:23:45;99632.03;;;7.94;62.52
60820;BME280;46641;48.904;9.126;2023-02-16T01:28:35;99635.69;;;7.92;62.85
60820;BME280;46641;48.904;9.126;2023-02-16T01:33:25;99629.75;;;7.90;62.20
60820;BME280;46641;48.904;9.126;2023-02-16T01:38:25;99623.81;;;7.88;61.96
60820;BME280;46641;48.904;9.126;2023-02-16T01:43:26;99625.59;;;7.87;62.06
60820;BME280;46641;48.904;9.126;2023-02-16T01:48:23;99618.81;;;7.85;62.41
60820;BME280;46641;48.904;9.126;2023-02-16T01:53:37;99612.13;;;7.81;62.34
60820;BME280;46641;48.904;9.126;2023-02-16T02:03:21;99620.03;;;7.79;62.57
60820;BME280;46641;48.904;9.126;2023-02-16T02:08:36;99624.41;;;7.79;62.94
60820;BME280;46641;48.904;9.126;2023-02-16T02:13:53;99621.06;;;7.77;62.21
60820;BME280;46641;48.904;9.126;2023-02-16T02:18:46;99616.09;;;7.73;63.01
60820;BME280;46641;48.904;9.126;2023-02-16T02:29:39;99607.72;;;7.68;62.22
60820;BME280;46641;48.904;9.126;2023-02-16T02:40:21;99592.31;;;7.65;63.11
60820;BME280;46641;48.904;9.126;2023-02-16T02:45:26;99591.66;;;7.62;62.61
60820;BME280;46641;48.904;9.126;2023-02-16T02:50:39;99590.00;;;7.61;62.70
60820;BME280;46641;48.904;9.126;2023-02-16T02:55:32;99584.06;;;7.59;63.05
60820;BME280;46641;48.904;9.126;2023-02-16T03:00:44;99582.47;;;7.56;63.04
60820;BME280;46641;48.904;9.126;2023-02-16T03:05:43;99593.72;;;7.57;62.59
60820;BME280;46641;48.904;9.126;2023-02-16T03:10:35;99595.63;;;7.55;63.15
60820;BME280;46641;48.904;9.126;2023-02-16T03:15:47;99584.47;;;7.53;63.02
60820;BME280;46641;48.904;9.126;2023-02-16T03:20:40;99588.84;;;7.52;62.79
60820;BME280;46641;48.904;9.126;2023-02-16T03:25:51;99583.72;;;7.50;63.07
60820;BME280;46641;48.904;9.126;2023-02-16T03:31:01;99599.56;;;7.47;62.91
60820;BME280;46641;48.904;9.126;2023-02-16T03:35:52;99588.28;;;7.47;63.00
60820;BME280;46641;48.904;9.126;2023-02-16T03:40:44;99598.84;;;7.45;63.01
60820;BME280;46641;48.904;9.126;2023-02-16T03:45:39;99590.19;;;7.45;63.25
60820;BME280;46641;48.904;9.126;2023-02-16T03:50:30;99595.47;;;7.43;63.09
60820;BME280;46641;48.904;9.126;2023-02-16T03:55:21;99604.31;;;7.41;63.25
60820;BME280;46641;48.904;9.126;2023-02-16T04:00:11;99615.59;;;7.41;63.41
60820;BME280;46641;48.904;9.126;2023-02-16T04:05:02;99612.25;;;7.39;63.09
60820;BME280;46641;48.904;9.126;2023-02-16T04:09:52;99610.41;;;7.41;63.12
60820;BME280;46641;48.904;9.126;2023-02-16T04:14:42;99594.13;;;7.38;62.93
60820;BME280;46641;48.904;9.126;2023-02-16T04:19:33;99604.63;;;7.36;62.98
60820;BME280;46641;48.904;9.126;2023-02-16T04:24:23;99606.50;;;7.34;62.98
60820;BME280;46641;48.904;9.126;2023-02-16T04:29:14;99615.25;;;7.33;62.83
60820;BME280;46641;48.904;9.126;2023-02-16T04:34:04;99598.88;;;7.31;63.33
60820;BME280;46641;48.904;9.126;2023-02-16T04:38:54;99612.84;;;7.30;63.45
60820;BME280;46641;48.904;9.126;2023-02-16T04:43:45;99614.72;;;7.28;63.39
60820;BME280;46641;48.904;9.126;2023-02-16T04:48:35;99617.53;;;7.25;63.75
60820;BME280;46641;48.904;9.126;2023-02-16T04:53:25;99614.06;;;7.24;63.44
60820;BME280;46641;48.904;9.126;2023-02-16T04:58:16;99607.19;;;7.23;63.92
60820;BME280;46641;48.904;9.126;2023-02-16T05:03:06;99616.03;;;7.21;63.42
60820;BME280;46641;48.904;9.126;2023-02-16T05:07:56;99603.22;;;7.18;63.50
60820;BME280;46641;48.904;9.126;2023-02-16T05:12:47;99597.09;;;7.19;63.47
60820;BME280;46641;48.904;9.126;2023-02-16T05:17:56;99603.41;;;7.15;63.64
60820;BME280;46641;48.904;9.126;2023-02-16T05:22:46;99602.56;;;7.14;63.41
60820;BME280;46641;48.904;9.126;2023-02-16T05:27:36;99613.00;;;7.14;63.44
60820;BME280;46641;48.904;9.126;2023-02-16T05:32:27;99617.47;;;7.12;63.40
60820;BME280;46641;48.904;9.126;2023-02-16T05:37:17;99615.78;;;7.11;63.46
60820;BME280;46641;48.904;9.126;2023-02-16T05:42:08;99618.50;;;7.10;63.70
60820;BME280;46641;48.904;9.126;2023-02-16T05:46:58;99618.59;;;7.08;63.99
60820;BME280;46641;48.904;9.126;2023-02-16T05:51:48;99627.25;;;7.09;63.58
60820;BME280;46641;48.904;9.126;2023-02-16T05:56:39;99632.66;;;7.06;63.55
60820;BME280;46641;48.904;9.126;2023-02-16T06:01:29;99626.50;;;7.07;64.03
60820;BME280;46641;48.904;9.126;2023-02-16T06:06:19;99633.56;;;7.05;63.59
60820;BME280;46641;48.904;9.126;2023-02-16T06:11:10;99639.88;;;6.73;62.24
60820;BME280;46641;48.904;9.126;2023-02-16T06:16:20;99652.22;;;6.84;59.02
60820;BME280;46641;48.904;9.126;2023-02-16T06:21:11;99651.19;;;6.72;58.31
60820;BME280;46641;48.904;9.126;2023-02-16T06:26:01;99648.91;;;6.25;58.14
60820;BME280;46641;48.904;9.126;2023-02-16T06:30:51;99662.34;;;6.46;59.26
60820;BME280;46641;48.904;9.126;2023-02-16T06:35:41;99662.75;;;6.54;59.28
60820;BME280;46641;48.904;9.126;2023-02-16T06:40:32;99655.59;;;6.58;59.73
60820;BME280;46641;48.904;9.126;2023-02-16T06:45:22;99654.47;;;6.62;59.82
60820;BME280;46641;48.904;9.126;2023-02-16T06:50:12;99657.06;;;6.62;60.01
60820;BME280;46641;48.904;9.126;2023-02-16T06:55:03;99659.66;;;6.62;60.20
60820;BME280;46641;48.904;9.126;2023-02-16T06:59:54;99667.56;;;6.60;60.42
60820;BME280;46641;48.904;9.126;2023-02-16T07:04:45;99664.97;;;6.60;60.76
60820;BME280;46641;48.904;9.126;2023-02-16T07:09:36;99662.38;;;6.60;61.16
60820;BME280;46641;48.904;9.126;2023-02-16T07:14:26;99670.19;;;6.60;61.23
60820;BME280;46641;48.904;9.126;2023-02-16T07:19:16;99673.69;;;6.59;61.02
60820;BME280;46641;48.904;9.126;2023-02-16T07:24:07;99669.31;;;6.60;61.55
60820;BME280;46641;48.904;9.126;2023-02-16T07:28:57;99668.41;;;6.61;61.28
60820;BME280;46641;48.904;9.126;2023-02-16T07:33:48;99671.84;;;6.61;61.81
60820;BME280;46641;48.904;9.126;2023-02-16T07:38:38;99675.38;;;6.60;61.84
60820;BME280;46641;48.904;9.126;2023-02-16T07:43:31;99682.25;;;6.61;62.21
60820;BME280;46641;48.904;9.126;2023-02-16T07:48:21;99689.94;;;6.63;61.99
60820;BME280;46641;48.904;9.126;2023-02-16T07:53:11;99695.06;;;6.64;62.22
60820;BME280;46641;48.904;9.126;2023-02-16T07:58:02;99688.00;;;6.66;62.15
60820;BME280;46641;48.904;9.126;2023-02-16T08:02:53;99695.81;;;6.66;62.24
60820;BME280;46641;48.904;9.126;2023-02-16T08:07:44;99689.69;;;6.67;62.32
60820;BME280;46641;48.904;9.126;2023-02-16T08:12:35;99699.16;;;6.68;62.42
60820;BME280;46641;48.904;9.126;2023-02-16T08:17:26;99693.94;;;6.68;62.67
60820;BME280;46641;48.904;9.126;2023-02-16T08:22:16;99691.25;;;6.70;62.64
60820;BME280;46641;48.904;9.126;2023-02-16T08:27:07;99691.06;;;6.73;62.60
60820;BME280;46641;48.904;9.126;2023-02-16T08:31:57;99695.22;;;6.75;62.33
60820;BME280;46641;48.904;9.126;2023-02-16T08:36:53;99692.56;;;6.77;62.36
60820;BME280;46641;48.904;9.126;2023-02-16T08:41:47;99685.47;;;6.79;62.41
60820;BME280;46641;48.904;9.126;2023-02-16T08:46:39;99701.00;;;6.81;62.78
60820;BME280;46641;48.904;9.126;2023-02-16T08:51:33;99699.03;;;6.84;62.63
60820;BME280;46641;48.904;9.126;2023-02-16T08:56:28;99694.59;;;6.86;62.71
60820;BME280;46641;48.904;9.126;2023-02-16T09:01:19;99691.81;;;6.89;62.78
60820;BME280;46641;48.904;9.126;2023-02-16T09:06:12;99681.22;;;6.92;63.00
60820;BME280;46641;48.904;9.126;2023-02-16T09:11:04;99684.44;;;6.96;63.02
60820;BME280;46641;48.904;9.126;2023-02-16T09:16:01;99684.16;;;7.00;63.07
60820;BME280;46641;48.904;9.126;2023-02-16T09:20:51;99682.09;;;7.06;63.11
60820;BME280;46641;48.904;9.126;2023-02-16T09:25:41;99681.81;;;7.10;62.95
60820;BME280;46641;48.904;9.126;2023-02-16T09:30:32;99682.25;;;7.17;63.10
60820;BME280;46641;48.904;9.126;2023-02-16T09:35:24;99688.34;;;7.30;63.60
60820;BME280;46641;48.904;9.126;2023-02-16T09:40:15;99679.75;;;7.42;62.96
60820;BME280;46641;48.904;9.126;2023-02-16T09:45:07;99674.59;;;7.55;63.06
60820;BME280;46641;48.904;9.126;2023-02-16T09:50:12;99681.50;;;7.69;62.61
60820;BME280;46641;48.904;9.126;2023-02-16T09:55:10;99678.13;;;7.81;62.25
60820;BME280;46641;48.904;9.126;2023-02-16T10:00:20;99671.69;;;8.00;62.32
60820;BME280;46641;48.904;9.126;2023-02-16T10:10:07;99663.16;;;8.23;62.16
60820;BME280;46641;48.904;9.126;2023-02-16T10:15:11;99655.16;;;8.39;62.88
60820;BME280;46641;48.904;9.126;2023-02-16T10:20:16;99666.81;;;8.59;61.89
60820;BME280;46641;48.904;9.126;2023-02-16T10:25:19;99663.84;;;8.76;62.60
60820;BME280;46641;48.904;9.126;2023-02-16T10:30:21;99660.28;;;8.90;62.63
60820;BME280;46641;48.904;9.126;2023-02-16T10:35:16;99656.28;;;9.10;62.40
60820;BME280;46641;48.904;9.126;2023-02-16T10:40:20;99649.00;;;9.26;62.35
60820;BME280;46641;48.904;9.126;2023-02-16T10:50:05;99639.41;;;9.62;62.98
60820;BME280;46641;48.904;9.126;2023-02-16T10:54:56;99643.47;;;9.77;63.01
60820;BME280;46641;48.904;9.126;2023-02-16T10:59:46;99640.56;;;9.93;63.18
60820;BME280;46641;48.904;9.126;2023-02-16T11:04:43;99634.88;;;10.11;62.81
60820;BME280;46641;48.904;9.126;2023-02-16T11:09:36;99628.72;;;10.23;62.91
60820;BME280;46641;48.904;9.126;2023-02-16T11:14:29;99624.81;;;10.40;63.11
60820;BME280;46641;48.904;9.126;2023-02-16T11:19:23;99621.75;;;10.57;62.93
60820;BME280;46641;48.904;9.126;2023-02-16T11:24:26;99626.47;;;10.74;62.14
60820;BME280;46641;48.904;9.126;2023-02-16T11:29:19;99603.25;;;10.92;62.33
60820;BME280;46641;48.904;9.126;2023-02-16T11:34:12;99610.72;;;11.08;62.25
60820;BME280;46641;48.904;9.126;2023-02-16T11:44:03;99596.31;;;11.35;62.35
60820;BME280;46641;48.904;9.126;2023-02-16T11:48:54;99590.66;;;11.51;61.82
60820;BME280;46641;48.904;9.126;2023-02-16T11:53:44;99589.50;;;11.64;62.44
60820;BME280;46641;48.904;9.126;2023-02-16T11:58:35;99579.66;;;11.78;62.09
60820;BME280;46641;48.904;9.126;2023-02-16T12:19:10;99555.03;;;12.21;62.42
60820;BME280;46641;48.904;9.126;2023-02-16T12:24:17;99547.91;;;12.32;61.91
60820;BME280;46641;48.904;9.126;2023-02-16T12:45:26;99524.50;;;12.79;62.20
60820;BME280;46641;48.904;9.126;2023-02-16T12:50:31;99519.00;;;12.92;62.29
60820;BME280;46641;48.904;9.126;2023-02-16T12:55:36;99512.91;;;13.01;62.07
60820;BME280;46641;48.904;9.126;2023-02-16T13:00:38;99509.31;;;13.12;62.24
60820;BME280;46641;48.904;9.126;2023-02-16T13:05:34;99510.00;;;13.14;62.58
60820;BME280;46641;48.904;9.126;2023-02-16T13:10:53;99500.19;;;13.16;62.72
60820;BME280;46641;48.904;9.126;2023-02-16T13:15:50;99489.97;;;13.23;62.49
60820;BME280;46641;48.904;9.126;2023-02-16T13:20:44;99493.00;;;13.28;62.79
60820;BME280;46641;48.904;9.126;2023-02-16T13:41:25;99472.94;;;13.37;62.48
60820;BME280;46641;48.904;9.126;2023-02-16T13:46:30;99478.31;;;13.35;63.06
60820;BME280;46641;48.904;9.126;2023-02-16T13:51:25;99486.63;;;13.40;62.66
60820;BME280;46641;48.904;9.126;2023-02-16T13:56:37;99472.22;;;13.44;62.65
60820;BME280;46641;48.904;9.126;2023-02-16T14:11:26;99466.97;;;13.44;62.78
60820;BME280;46641;48.904;9.126;2023-02-16T14:21:24;99464.75;;;13.49;62.06
60820;BME280;46641;48.904;9.126;2023-02-16T14:26:16;99466.81;;;13.55;62.68
60820;BME280;46641;48.904;9.126;2023-02-16T14:31:12;99464.44;;;13.62;61.83
60820;BME280;46641;48.904;9.126;2023-02-16T14:36:22;99464.00;;;13.67;61.70
60820;BME280;46641;48.904;9.126;2023-02-16T14:41:23;99462.44;;;13.74;61.28
60820;BME280;46641;48.904;9.126;2023-02-16T14:56:41;99461.00;;;13.89;61.07
60820;BME280;46641;48.904;9.126;2023-02-16T15:01:43;99462.38;;;13.93;60.87
60820;BME280;46641;48.904;9.126;2023-02-16T15:06:42;99453.06;;;13.99;60.24
60820;BME280;46641;48.904;9.126;2023-02-16T15:11:36;99452.91;;;14.00;61.17
60820;BME280;46641;48.904;9.126;2023-02-16T15:16:49;99453.47;;;14.04;61.27
60820;BME280;46641;48.904;9.126;2023-02-16T15:21:42;99442.50;;;14.09;61.23
60820;BME280;46641;48.904;9.126;2023-02-16T15:26:34;99440.38;;;14.12;60.80
60820;BME280;46641;48.904;9.126;2023-02-16T15:31:32;99431.22;;;14.16;60.30
60820;BME280;46641;48.904;9.126;2023-02-16T15:36:30;99435.22;;;14.20;60.18
60820;BME280;46641;48.904;9.126;2023-02-16T15:41:28;99431.44;;;14.23;60.35
60820;BME280;46641;48.904;9.126;2023-02-16T15:46:51;99431.44;;;14.23;60.94
60820;BME280;46641;48.904;9.126;2023-02-16T15:51:55;99437.41;;;14.25;60.49
60820;BME280;46641;48.904;9.126;2023-02-16T15:56:47;99432.13;;;14.25;60.44
60820;BME280;46641;48.904;9.126;2023-02-16T16:01:39;99421.44;;;14.26;60.13
60820;BME280;46641;48.904;9.126;2023-02-16T16:06:34;99434.47;;;14.28;59.61
60820;BME280;46641;48.904;9.126;2023-02-16T16:11:25;99434.47;;;14.28;59.94
60820;BME280;46641;48.904;9.126;2023-02-16T16:16:16;99422.97;;;14.29;59.97
60820;BME280;46641;48.904;9.126;2023-02-16T16:21:25;99430.84;;;14.29;59.16
60820;BME280;46641;48.904;9.126;2023-02-16T16:26:20;99436.13;;;14.29;59.37
60820;BME280;46641;48.904;9.126;2023-02-16T16:31:12;99444.03;;;14.29;59.89
60820;BME280;46641;48.904;9.126;2023-02-16T16:36:09;99436.41;;;14.26;59.11
60820;BME280;46641;48.904;9.126;2023-02-16T16:41:02;99426.19;;;14.23;59.95
60820;BME280;46641;48.904;9.126;2023-02-16T16:46:10;99438.69;;;14.21;59.74
60820;BME280;46641;48.904;9.126;2023-02-16T16:51:14;99436.19;;;14.19;59.10
60820;BME280;46641;48.904;9.126;2023-02-16T16:56:10;99433.56;;;14.19;59.04
60820;BME280;46641;48.904;9.126;2023-02-16T17:01:01;99437.28;;;14.17;59.61
60820;BME280;46641;48.904;9.126;2023-02-16T17:05:51;99439.09;;;14.16;59.09
60820;BME280;46641;48.904;9.126;2023-02-16T17:10:42;99451.44;;;14.16;59.44
60820;BME280;46641;48.904;9.126;2023-02-16T17:15:51;99448.16;;;14.14;59.05
60820;BME280;46641;48.904;9.126;2023-02-16T17:20:44;99448.44;;;14.11;59.19
60820;BME280;46641;48.904;9.126;2023-02-16T17:25:34;99450.38;;;14.09;59.06
60820;BME280;46641;48.904;9.126;2023-02-16T17:30:25;99454.00;;;14.08;59.10
60820;BME280;46641;48.904;9.126;2023-02-16T17:35:16;99454.97;;;14.07;58.81
60820;BME280;46641;48.904;9.126;2023-02-16T17:40:15;99461.22;;;14.06;58.11
60820;BME280;46641;48.904;9.126;2023-02-16T17:45:08;99463.16;;;14.03;58.79
60820;BME280;46641;48.904;9.126;2023-02-16T17:49:58;99470.38;;;14.01;58.69
60820;BME280;46641;48.904;9.126;2023-02-16T17:54:49;99470.50;;;14.00;58.62
60820;BME280;46641;48.904;9.126;2023-02-16T17:59:39;99481.84;;;14.00;58.39
60820;BME280;46641;48.904;9.126;2023-02-16T18:04:31;99480.38;;;13.98;58.45
60820;BME280;46641;48.904;9.126;2023-02-16T18:09:21;99478.84;;;13.95;58.35
60820;BME280;46641;48.904;9.126;2023-02-16T18:14:13;99481.47;;;13.95;58.47
60820;BME280;46641;48.904;9.126;2023-02-16T18:19:04;99478.16;;;13.93;58.17
60820;BME280;46641;48.904;9.126;2023-02-16T18:23:57;99479.97;;;13.93;58.26
60820;BME280;46641;48.904;9.126;2023-02-16T18:28:47;99471.38;;;13.91;58.09
60820;BME280;46641;48.904;9.126;2023-02-16T18:33:38;99483.03;;;13.88;58.08
60820;BME280;46641;48.904;9.126;2023-02-16T18:38:28;99488.31;;;13.88;57.93
60820;BME280;46641;48.904;9.126;2023-02-16T18:43:19;99493.69;;;13.87;58.00
60820;BME280;46641;48.904;9.126;2023-02-16T18:48:10;99494.81;;;13.84;57.95
60820;BME280;46641;48.904;9.126;2023-02-16T18:53:00;99490.53;;;13.83;57.79
60820;BME280;46641;48.904;9.126;2023-02-16T18:57:50;99480.28;;;13.80;57.87
60820;BME280;46641;48.904;9.126;2023-02-16T19:02:41;99480.56;;;13.77;57.74
60820;BME280;46641;48.904;9.126;2023-02-16T19:07:32;99476.28;;;13.76;57.80
60820;BME280;46641;48.904;9.126;2023-02-16T19:12:22;99490.44;;;13.75;58.13
60820;BME280;46641;48.904;9.126;2023-02-16T19:17:13;99500.25;;;13.73;57.96
60820;BME280;46641;48.904;9.126;2023-02-16T19:22:03;99489.84;;;13.71;57.67
60820;BME280;46641;48.904;9.126;2023-02-16T19:26:53;99483.78;;;13.71;57.94
60820;BME280;46641;48.904;9.126;2023-02-16T19:31:44;99487.38;;;13.70;57.83
60820;BME280;46641;48.904;9.126;2023-02-16T19:36:36;99491.00;;;13.69;57.82
60820;BME280;46641;48.904;9.126;2023-02-16T19:41:30;99486.69;;;13.68;57.94
60820;BME280;46641;48.904;9.126;2023-02-16T19:46:20;99485.03;;;13.67;58.16
60820;BME280;46641;48.904;9.126;2023-02-16T19:51:12;99482.56;;;13.65;57.73
60820;BME280;46641;48.904;9.126;2023-02-16T19:56:12;99488.94;;;13.63;57.70
60820;BME280;46641;48.904;9.126;2023-02-16T20:01:12;99496.94;;;13.61;57.51
60820;BME280;46641;48.904;9.126;2023-02-16T20:06:11;99505.00;;;13.60;57.70
60820;BME280;46641;48.904;9.126;2023-02-16T20:11:03;99495.47;;;13.59;58.17
60820;BME280;46641;48.904;9.126;2023-02-16T20:15:54;99499.03;;;13.57;58.07
60820;BME280;46641;48.904;9.126;2023-02-16T20:20:44;99507.09;;;13.56;58.18
60820;BME280;46641;48.904;9.126;2023-02-16T20:25:38;99501.00;;;13.55;58.06
60820;BME280;46641;48.904;9.126;2023-02-16T20:30:28;99488.81;;;13.54;57.83
60820;BME280;46641;48.904;9.126;2023-02-16T20:35:20;99496.84;;;13.53;58.01
60820;BME280;46641;48.904;9.126;2023-02-16T20:40:11;99496.16;;;13.51;58.18
60820;BME280;46641;48.904;9.126;2023-02-16T20:45:01;99488.69;;;13.46;58.24
60820;BME280;46641;48.904;9.126;2023-02-16T20:49:52;99492.97;;;13.47;58.00
60820;BME280;46641;48.904;9.126;2023-02-16T20:54:43;99488.00;;;13.44;58.03
60820;BME280;46641;48.904;9.126;2023-02-16T20:59:33;99485.25;;;13.46;58.04
60820;BME280;46641;48.904;9.126;2023-02-16T21:04:23;99477.47;;;13.44;57.98
60820;BME280;46641;48.904;9.126;2023-02-16T21:09:14;99464.63;;;13.41;58.09
60820;BME280;46641;48.904;9.126;2023-02-16T21:14:06;99458.81;;;13.38;58.22
60820;BME280;46641;48.904;9.126;2023-02-16T21:18:56;99461.44;;;13.38;57.93
60820;BME280;46641;48.904;9.126;2023-02-16T21:23:50;99466.84;;;13.36;58.06
60820;BME280;46641;48.904;9.126;2023-02-16T21:28:41;99467.13;;;13.33;57.59
60820;BME280;46641;48.904;9.126;2023-02-16T21:33:31;99462.72;;;13.33;57.76
60820;BME280;46641;48.904;9.126;2023-02-16T21:38:22;99463.00;;;13.30;57.81
60820;BME280;46641;48.904;9.126;2023-02-16T21:43:12;99461.34;;;13.29;57.80
60820;BME280;46641;48.904;9.126;2023-02-16T21:48:03;99444.03;;;13.27;58.02
60820;BME280;46641;48.904;9.126;2023-02-16T21:53:12;99446.78;;;13.25;57.82
60820;BME280;46641;48.904;9.126;2023-02-16T21:58:02;99443.59;;;13.22;57.72
60820;BME280;46641;48.904;9.126;2023-02-16T22:02:55;99441.25;;;13.19;57.67
60820;BME280;46641;48.904;9.126;2023-02-16T22:07:45;99435.97;;;13.19;57.87
60820;BME280;46641;48.904;9.126;2023-02-16T22:12:36;99437.94;;;13.17;57.66
60820;BME280;46641;48.904;9.126;2023-02-16T22:17:26;99440.69;;;13.15;57.75
60820;BME280;46641;48.904;9.126;2023-02-16T22:22:16;99440.16;;;13.12;57.46
60820;BME280;46641;48.904;9.126;2023-02-16T22:27:07;99435.72;;;13.12;57.99
60820;BME280;46641;48.904;9.126;2023-02-16T22:31:57;99438.50;;;13.10;57.89
60820;BME280;46641;48.904;9.126;2023-02-16T22:36:48;99423.13;;;13.06;57.80
60820;BME280;46641;48.904;9.126;2023-02-16T22:41:38;99428.41;;;13.06;57.84
60820;BME280;46641;48.904;9.126;2023-02-16T22:46:29;99433.81;;;13.04;57.81
60820;BME280;46641;48.904;9.126;2023-02-16T22:51:20;99427.03;;;13.02;57.79
60820;BME280;46641;48.904;9.126;2023-02-16T22:56:13;99433.09;;;13.02;57.53
60820;BME280;46641;48.904;9.126;2023-02-16T23:01:10;99433.38;;;12.99;57.75
60820;BME280;46641;48.904;9.126;2023-02-16T23:06:19;99425.66;;;12.98;57.49
60820;BME280;46641;48.904;9.126;2023-02-16T23:11:10;99428.41;;;12.96;58.20
60820;BME280;46641;48.904;9.126;2023-02-16T23:16:07;99432.72;;;12.97;57.37
60820;BME280;46641;48.904;9.126;2023-02-16T23:21:17;99431.31;;;12.93;57.74
60820;BME280;46641;48.904;9.126;2023-02-16T23:26:08;99431.19;;;12.95;57.54
60820;BME280;46641;48.904;9.126;2023-02-16T23:30:58;99441.81;;;12.93;57.76
60820;BME280;46641;48.904;9.126;2023-02-16T23:35:49;99428.84;;;12.92;57.70
60820;BME280;46641;48.904;9.126;2023-02-16T23:40:40;99441.16;;;12.91;57.54
60820;BME280;46641;48.904;9.126;2023-02-16T23:45:31;99434.38;;;12.89;57.63
60820;BME280;46641;48.904;9.126;2023-02-16T23:50:21;99424.69;;;12.89;57.77
60820;BME280;46641;48.904;9.126;2023-02-16T23:55:12;99424.69;;;12.89;57.51
